Flight Briefing for CPX661

Departure Arrival
Tampa International Airport (KTPA)
Click to view FAA NOTAMS
Miami International Airport (KMIA)
Click to view FAA NOTAMS
Departure Time Arrival Time
N/A N/A
Aircraft Distance
SF340AF 177nm
Departure METAR Arrival METAR
KTPA 271153Z 15005KT 10SM CLR 26/22 A3010 RMK AO2 SLP191 T02560217 10272 20239 51010 $ KMIA 271153Z 06007KT 10SM FEW025 27/20 A3007 RMK AO2 SLP182 T02720200 10272 20261 53011
Suggested Route
GANDY8 SABEE CYY CYY9


View recent IFR Routes data
Notes



Charts and Procedures

Charts for KTPA
No chart available
Charts for KMIA
No chart available

Windy.com Weather Map